sensor_id;sensor_type;location;lat;lon;timestamp;pressure;altitude;pressure_sealevel;temperature;humidity
49055;BME280;35405;52.344;14.530;2023-03-01T05:48:38;102124.22;;;-7.89;100.00
49055;BME280;35405;52.344;14.530;2023-03-01T05:51:03;102127.59;;;-7.67;100.00
49055;BME280;35405;52.344;14.530;2023-03-01T05:53:29;102129.56;;;-7.60;100.00
49055;BME280;35405;52.344;14.530;2023-03-01T05:55:54;102137.59;;;-7.71;100.00
49055;BME280;35405;52.344;14.530;2023-03-01T05:58:19;102133.56;;;-7.75;100.00
49055;BME280;35405;52.344;14.530;2023-03-01T06:00:45;102131.38;;;-7.70;100.00
49055;BME280;35405;52.344;14.530;2023-03-01T06:03:11;102128.19;;;-7.64;100.00
49055;BME280;35405;52.344;14.530;2023-03-01T06:05:37;102128.91;;;-7.52;100.00
49055;BME280;35405;52.344;14.530;2023-03-01T06:08:03;102136.28;;;-7.46;100.00
49055;BME280;35405;52.344;14.530;2023-03-01T06:10:29;102130.28;;;-7.48;100.00
49055;BME280;35405;52.344;14.530;2023-03-01T06:12:54;102134.75;;;-7.39;100.00
49055;BME280;35405;52.344;14.530;2023-03-01T06:15:19;102127.22;;;-7.24;100.00
49055;BME280;35405;52.344;14.530;2023-03-01T06:17:45;102134.31;;;-7.05;100.00
49055;BME280;35405;52.344;14.530;2023-03-01T06:20:12;102136.28;;;-6.97;100.00
49055;BME280;35405;52.344;14.530;2023-03-01T06:22:38;102134.19;;;-6.94;100.00
49055;BME280;35405;52.344;14.530;2023-03-01T06:25:03;102136.91;;;-6.66;100.00
49055;BME280;35405;52.344;14.530;2023-03-01T06:27:29;102140.19;;;-6.45;100.00
49055;BME280;35405;52.344;14.530;2023-03-01T06:29:54;102144.88;;;-6.29;100.00
49055;BME280;35405;52.344;14.530;2023-03-01T06:32:19;102146.16;;;-6.33;100.00
49055;BME280;35405;52.344;14.530;2023-03-01T06:34:44;102143.81;;;-6.36;100.00
49055;BME280;35405;52.344;14.530;2023-03-01T06:37:10;102140.03;;;-6.33;100.00
49055;BME280;35405;52.344;14.530;2023-03-01T06:39:35;102141.13;;;-6.26;100.00
49055;BME280;35405;52.344;14.530;2023-03-01T06:42:00;102142.88;;;-6.17;100.00
49055;BME280;35405;52.344;14.530;2023-03-01T06:44:26;102135.59;;;-6.05;100.00
49055;BME280;35405;52.344;14.530;2023-03-01T06:46:51;102140.19;;;-5.97;100.00
49055;BME280;35405;52.344;14.530;2023-03-01T06:49:16;102138.44;;;-5.89;100.00
49055;BME280;35405;52.344;14.530;2023-03-01T06:51:43;102143.50;;;-5.78;100.00
49055;BME280;35405;52.344;14.530;2023-03-01T06:54:08;102142.56;;;-5.59;100.00
49055;BME280;35405;52.344;14.530;2023-03-01T06:56:33;102146.81;;;-5.48;100.00
49055;BME280;35405;52.344;14.530;2023-03-01T06:58:58;102148.56;;;-5.39;100.00
49055;BME280;35405;52.344;14.530;2023-03-01T07:01:23;102148.53;;;-5.29;100.00
49055;BME280;35405;52.344;14.530;2023-03-01T07:03:49;102149.28;;;-5.19;100.00
49055;BME280;35405;52.344;14.530;2023-03-01T07:06:14;102153.13;;;-5.13;100.00
49055;BME280;35405;52.344;14.530;2023-03-01T07:08:39;102158.66;;;-5.07;100.00
49055;BME280;35405;52.344;14.530;2023-03-01T07:11:04;102156.78;;;-4.96;100.00
49055;BME280;35405;52.344;14.530;2023-03-01T07:13:30;102154.16;;;-4.88;100.00
49055;BME280;35405;52.344;14.530;2023-03-01T07:15:55;102159.63;;;-4.72;100.00
49055;BME280;35405;52.344;14.530;2023-03-01T07:18:21;102158.41;;;-4.51;100.00
49055;BME280;35405;52.344;14.530;2023-03-01T07:20:46;102153.16;;;-4.43;100.00
49055;BME280;35405;52.344;14.530;2023-03-01T07:23:11;67307.06;;;-147.10;100.00
49055;BME280;35405;52.344;14.530;2023-03-01T07:25:36;102157.28;;;-4.23;100.00
49055;BME280;35405;52.344;14.530;2023-03-01T07:28:01;102161.81;;;-4.15;100.00
49055;BME280;35405;52.344;14.530;2023-03-01T07:30:27;102155.88;;;-4.09;100.00
49055;BME280;35405;52.344;14.530;2023-03-01T07:32:53;102163.09;;;-3.93;100.00
49055;BME280;35405;52.344;14.530;2023-03-01T07:35:18;102156.50;;;-3.81;100.00
49055;BME280;35405;52.344;14.530;2023-03-01T07:37:44;102164.28;;;-3.79;100.00
49055;BME280;35405;52.344;14.530;2023-03-01T07:40:09;102156.50;;;-3.81;100.00
49055;BME280;35405;52.344;14.530;2023-03-01T07:42:35;102157.00;;;-3.77;100.00
49055;BME280;35405;52.344;14.530;2023-03-01T07:45:00;102156.84;;;-3.68;100.00
49055;BME280;35405;52.344;14.530;2023-03-01T07:47:25;102157.06;;;-3.53;100.00
49055;BME280;35405;52.344;14.530;2023-03-01T07:49:50;102160.59;;;-3.36;100.00
49055;BME280;35405;52.344;14.530;2023-03-01T07:52:15;102154.47;;;-3.20;100.00
49055;BME280;35405;52.344;14.530;2023-03-01T07:54:42;102154.00;;;-3.15;100.00
49055;BME280;35405;52.344;14.530;2023-03-01T07:57:07;102148.84;;;-3.01;100.00
49055;BME280;35405;52.344;14.530;2023-03-01T07:59:32;102148.50;;;-2.81;100.00
49055;BME280;35405;52.344;14.530;2023-03-01T08:01:58;102151.00;;;-2.71;100.00
49055;BME280;35405;52.344;14.530;2023-03-01T08:04:23;102143.34;;;-2.58;100.00
49055;BME280;35405;52.344;14.530;2023-03-01T08:06:50;102138.66;;;-2.48;100.00
49055;BME280;35405;52.344;14.530;2023-03-01T08:09:15;102141.94;;;-2.30;100.00
49055;BME280;35405;52.344;14.530;2023-03-01T08:11:40;102149.41;;;-2.17;100.00
49055;BME280;35405;52.344;14.530;2023-03-01T08:14:05;102150.84;;;-1.98;100.00
49055;BME280;35405;52.344;14.530;2023-03-01T08:16:31;102147.63;;;-1.85;100.00
49055;BME280;35405;52.344;14.530;2023-03-01T08:18:57;102151.78;;;-1.82;100.00
49055;BME280;35405;52.344;14.530;2023-03-01T08:21:25;102146.91;;;-1.71;100.00
49055;BME280;35405;52.344;14.530;2023-03-01T08:23:50;102150.50;;;-1.55;100.00
49055;BME280;35405;52.344;14.530;2023-03-01T08:26:17;102147.38;;;-1.36;100.00
49055;BME280;35405;52.344;14.530;2023-03-01T08:28:43;102150.78;;;-1.19;100.00
49055;BME280;35405;52.344;14.530;2023-03-01T08:31:15;102144.53;;;-1.11;100.00
49055;BME280;35405;52.344;14.530;2023-03-01T08:33:41;102145.31;;;-1.03;100.00
49055;BME280;35405;52.344;14.530;2023-03-01T08:36:06;102140.22;;;-0.89;100.00
49055;BME280;35405;52.344;14.530;2023-03-01T08:38:32;102133.50;;;-0.85;100.00
49055;BME280;35405;52.344;14.530;2023-03-01T08:40:59;102136.56;;;-0.74;100.00
49055;BME280;35405;52.344;14.530;2023-03-01T08:43:24;102148.94;;;-0.58;100.00
49055;BME280;35405;52.344;14.530;2023-03-01T08:45:49;102148.78;;;-0.41;100.00
49055;BME280;35405;52.344;14.530;2023-03-01T08:48:15;102146.97;;;-0.26;100.00
49055;BME280;35405;52.344;14.530;2023-03-01T08:50:40;102147.63;;;-0.24;100.00
49055;BME280;35405;52.344;14.530;2023-03-01T08:53:06;102152.69;;;-0.14;100.00
49055;BME280;35405;52.344;14.530;2023-03-01T08:55:31;102155.81;;;-0.11;100.00
49055;BME280;35405;52.344;14.530;2023-03-01T08:57:56;102157.22;;;0.00;100.00
49055;BME280;35405;52.344;14.530;2023-03-01T09:00:23;102159.75;;;0.08;100.00
49055;BME280;35405;52.344;14.530;2023-03-01T09:02:49;102150.16;;;0.14;100.00
49055;BME280;35405;52.344;14.530;2023-03-01T09:05:15;102154.63;;;0.07;100.00
49055;BME280;35405;52.344;14.530;2023-03-01T09:07:40;102154.41;;;0.23;100.00
49055;BME280;35405;52.344;14.530;2023-03-01T09:10:05;102152.75;;;0.22;100.00
49055;BME280;35405;52.344;14.530;2023-03-01T09:12:30;102157.34;;;0.28;100.00
49055;BME280;35405;52.344;14.530;2023-03-01T09:14:56;102144.31;;;0.40;100.00
49055;BME280;35405;52.344;14.530;2023-03-01T09:17:21;102150.97;;;0.65;100.00
49055;BME280;35405;52.344;14.530;2023-03-01T09:19:46;102148.69;;;0.84;100.00
49055;BME280;35405;52.344;14.530;2023-03-01T09:22:11;102156.81;;;0.90;100.00
49055;BME280;35405;52.344;14.530;2023-03-01T09:24:36;102154.97;;;0.91;100.00
49055;BME280;35405;52.344;14.530;2023-03-01T09:27:02;102147.25;;;1.03;100.00
49055;BME280;35405;52.344;14.530;2023-03-01T09:29:27;102152.34;;;1.19;100.00
49055;BME280;35405;52.344;14.530;2023-03-01T09:31:53;102161.13;;;1.34;100.00
49055;BME280;35405;52.344;14.530;2023-03-01T09:34:20;102153.13;;;1.41;100.00
49055;BME280;35405;52.344;14.530;2023-03-01T09:36:48;102162.91;;;1.49;100.00
49055;BME280;35405;52.344;14.530;2023-03-01T09:39:13;102155.69;;;1.49;100.00
49055;BME280;35405;52.344;14.530;2023-03-01T09:44:21;102149.91;;;1.80;100.00
49055;BME280;35405;52.344;14.530;2023-03-01T09:46:48;102158.97;;;1.79;100.00
49055;BME280;35405;52.344;14.530;2023-03-01T09:49:15;102153.25;;;1.89;100.00
49055;BME280;35405;52.344;14.530;2023-03-01T09:51:42;102172.09;;;1.96;100.00
49055;BME280;35405;52.344;14.530;2023-03-01T09:54:09;102171.25;;;1.95;100.00
49055;BME280;35405;52.344;14.530;2023-03-01T09:59:19;102169.84;;;1.99;100.00
49055;BME280;35405;52.344;14.530;2023-03-01T10:06:44;102158.03;;;1.94;100.00
49055;BME280;35405;52.344;14.530;2023-03-01T10:09:16;102164.25;;;2.01;100.00
49055;BME280;35405;52.344;14.530;2023-03-01T10:11:47;102158.03;;;1.94;100.00
49055;BME280;35405;52.344;14.530;2023-03-01T10:16:57;102163.59;;;2.34;100.00
49055;BME280;35405;52.344;14.530;2023-03-01T10:19:34;102158.59;;;2.24;100.00
49055;BME280;35405;52.344;14.530;2023-03-01T10:22:21;102144.97;;;2.25;100.00
49055;BME280;35405;52.344;14.530;2023-03-01T10:24:48;102143.00;;;2.41;100.00
49055;BME280;35405;52.344;14.530;2023-03-01T10:27:17;102146.31;;;2.49;100.00
49055;BME280;35405;52.344;14.530;2023-03-01T10:32:18;102138.88;;;2.45;100.00
49055;BME280;35405;52.344;14.530;2023-03-01T10:34:43;102135.38;;;2.51;100.00
49055;BME280;35405;52.344;14.530;2023-03-01T10:39:36;102146.19;;;2.78;100.00
49055;BME280;35405;52.344;14.530;2023-03-01T10:42:07;102145.78;;;2.81;100.00
49055;BME280;35405;52.344;14.530;2023-03-01T10:47:27;102139.41;;;2.95;100.00
49055;BME280;35405;52.344;14.530;2023-03-01T10:52:18;102137.34;;;3.10;100.00
49055;BME280;35405;52.344;14.530;2023-03-01T10:54:50;102148.69;;;3.12;100.00
49055;BME280;35405;52.344;14.530;2023-03-01T10:57:30;102137.75;;;3.07;100.00
49055;BME280;35405;52.344;14.530;2023-03-01T11:00:00;102137.94;;;3.12;100.00
49055;BME280;35405;52.344;14.530;2023-03-01T11:02:29;102126.59;;;3.10;100.00
49055;BME280;35405;52.344;14.530;2023-03-01T11:04:59;102124.94;;;3.09;100.00
49055;BME280;35405;52.344;14.530;2023-03-01T11:07:24;102127.63;;;3.16;100.00
49055;BME280;35405;52.344;14.530;2023-03-01T11:09:50;102122.84;;;3.25;100.00
49055;BME280;35405;52.344;14.530;2023-03-01T11:12:15;102122.03;;;3.31;100.00
49055;BME280;35405;52.344;14.530;2023-03-01T11:14:47;102123.91;;;3.43;100.00
49055;BME280;35405;52.344;14.530;2023-03-01T11:17:15;102121.63;;;3.47;100.00
49055;BME280;35405;52.344;14.530;2023-03-01T11:19:42;102115.19;;;3.55;100.00
49055;BME280;35405;52.344;14.530;2023-03-01T11:24:44;102119.13;;;3.52;100.00
49055;BME280;35405;52.344;14.530;2023-03-01T11:29:42;102115.19;;;3.61;100.00
49055;BME280;35405;52.344;14.530;2023-03-01T11:32:10;102112.28;;;3.63;100.00
49055;BME280;35405;52.344;14.530;2023-03-01T11:37:28;102127.19;;;3.65;100.00
49055;BME280;35405;52.344;14.530;2023-03-01T11:45:08;102120.31;;;3.70;100.00
49055;BME280;35405;52.344;14.530;2023-03-01T11:50:11;102120.56;;;3.61;100.00
49055;BME280;35405;52.344;14.530;2023-03-01T11:57:56;102104.38;;;3.75;100.00
49055;BME280;35405;52.344;14.530;2023-03-01T12:06:39;102095.78;;;4.11;100.00
49055;BME280;35405;52.344;14.530;2023-03-01T12:08:38;102094.34;;;4.08;100.00
49055;BME280;35405;52.344;14.530;2023-03-01T12:11:19;102093.91;;;4.11;100.00
49055;BME280;35405;52.344;14.530;2023-03-01T12:13:55;102093.91;;;4.11;100.00
49055;BME280;35405;52.344;14.530;2023-03-01T12:19:01;102084.34;;;4.22;100.00
49055;BME280;35405;52.344;14.530;2023-03-01T12:39:24;102051.56;;;4.32;100.00
49055;BME280;35405;52.344;14.530;2023-03-01T12:41:58;102040.72;;;4.39;100.00
49055;BME280;35405;52.344;14.530;2023-03-01T12:46:55;102042.19;;;4.41;100.00
49055;BME280;35405;52.344;14.530;2023-03-01T12:49:26;102043.63;;;4.44;100.00
49055;BME280;35405;52.344;14.530;2023-03-01T12:54:45;102051.13;;;4.35;100.00
49055;BME280;35405;52.344;14.530;2023-03-01T12:59:49;102029.94;;;4.45;99.06
49055;BME280;35405;52.344;14.530;2023-03-01T13:17:48;102016.78;;;4.30;100.00
49055;BME280;35405;52.344;14.530;2023-03-01T13:20:15;102009.84;;;4.41;100.00
49055;BME280;35405;52.344;14.530;2023-03-01T13:22:41;102013.38;;;4.42;98.84
49055;BME280;35405;52.344;14.530;2023-03-01T13:27:38;102012.69;;;4.15;100.00
49055;BME280;35405;52.344;14.530;2023-03-01T13:30:03;102019.78;;;4.09;99.64
49055;BME280;35405;52.344;14.530;2023-03-01T13:32:31;102014.16;;;4.17;100.00
49055;BME280;35405;52.344;14.530;2023-03-01T13:37:33;102002.59;;;4.42;94.94
49055;BME280;35405;52.344;14.530;2023-03-01T13:40:00;101999.31;;;4.40;92.10
49055;BME280;35405;52.344;14.530;2023-03-01T13:42:37;102001.78;;;4.41;92.20
49055;BME280;35405;52.344;14.530;2023-03-01T13:45:03;101989.78;;;4.37;93.29
49055;BME280;35405;52.344;14.530;2023-03-01T13:47:29;101997.88;;;4.37;92.44
49055;BME280;35405;52.344;14.530;2023-03-01T13:50:02;101995.19;;;4.37;93.39
49055;BME280;35405;52.344;14.530;2023-03-01T13:52:36;101983.59;;;4.30;93.42
49055;BME280;35405;52.344;14.530;2023-03-01T13:55:03;101986.31;;;4.30;93.89
49055;BME280;35405;52.344;14.530;2023-03-01T13:57:36;101979.38;;;4.16;94.69
49055;BME280;35405;52.344;14.530;2023-03-01T14:00:04;101980.81;;;4.11;96.96
49055;BME280;35405;52.344;14.530;2023-03-01T14:02:30;101978.06;;;4.25;91.89
49055;BME280;35405;52.344;14.530;2023-03-01T14:04:55;101971.75;;;4.38;90.83
49055;BME280;35405;52.344;14.530;2023-03-01T14:07:22;101970.69;;;4.39;90.76
49055;BME280;35405;52.344;14.530;2023-03-01T14:09:53;101965.75;;;4.35;92.50
49055;BME280;35405;52.344;14.530;2023-03-01T14:15:31;101969.06;;;4.38;91.77
49055;BME280;35405;52.344;14.530;2023-03-01T14:17:59;101961.81;;;4.38;87.74
49055;BME280;35405;52.344;14.530;2023-03-01T14:20:30;101963.28;;;4.34;86.38
49055;BME280;35405;52.344;14.530;2023-03-01T14:22:58;101954.78;;;4.37;82.38
49055;BME280;35405;52.344;14.530;2023-03-01T14:28:00;101951.41;;;4.42;79.47
49055;BME280;35405;52.344;14.530;2023-03-01T14:30:31;101951.66;;;4.40;79.72
49055;BME280;35405;52.344;14.530;2023-03-01T14:32:58;101944.50;;;4.27;80.08
49055;BME280;35405;52.344;14.530;2023-03-01T14:35:25;101947.63;;;4.24;83.18
49055;BME280;35405;52.344;14.530;2023-03-01T14:37:51;101945.13;;;4.23;82.92
49055;BME280;35405;52.344;14.530;2023-03-01T14:40:24;101940.94;;;4.33;79.04
49055;BME280;35405;52.344;14.530;2023-03-01T14:42:49;101938.00;;;4.35;75.69
49055;BME280;35405;52.344;14.530;2023-03-01T14:45:15;101932.00;;;4.33;74.76
49055;BME280;35405;52.344;14.530;2023-03-01T14:47:41;101929.22;;;4.21;77.79
49055;BME280;35405;52.344;14.530;2023-03-01T14:50:15;101929.81;;;4.23;79.12
49055;BME280;35405;52.344;14.530;2023-03-01T14:52:45;101933.72;;;4.27;81.04
49055;BME280;35405;52.344;14.530;2023-03-01T14:55:18;101927.03;;;4.37;81.13
49055;BME280;35405;52.344;14.530;2023-03-01T14:57:44;101926.53;;;4.21;83.21
49055;BME280;35405;52.344;14.530;2023-03-01T15:00:10;101920.28;;;4.21;83.42
49055;BME280;35405;52.344;14.530;2023-03-01T15:02:40;101924.72;;;4.08;84.85
49055;BME280;35405;52.344;14.530;2023-03-01T15:05:08;101928.22;;;4.16;86.34
49055;BME280;35405;52.344;14.530;2023-03-01T15:07:34;101919.69;;;4.19;86.58
49055;BME280;35405;52.344;14.530;2023-03-01T15:10:01;101924.25;;;4.18;86.91
49055;BME280;35405;52.344;14.530;2023-03-01T15:14:51;101925.34;;;4.10;88.43
49055;BME280;35405;52.344;14.530;2023-03-01T15:19:46;101916.22;;;4.11;88.55
49055;BME280;35405;52.344;14.530;2023-03-01T15:22:14;101912.97;;;4.03;87.74
49055;BME280;35405;52.344;14.530;2023-03-01T15:24:40;101916.19;;;3.86;90.26
49055;BME280;35405;52.344;14.530;2023-03-01T15:27:12;101916.38;;;3.85;89.95
49055;BME280;35405;52.344;14.530;2023-03-01T15:29:39;101918.81;;;3.93;86.68
49055;BME280;35405;52.344;14.530;2023-03-01T15:32:06;101921.31;;;3.95;88.54
49055;BME280;35405;52.344;14.530;2023-03-01T15:34:48;101926.03;;;3.99;88.54
49055;BME280;35405;52.344;14.530;2023-03-01T15:42:43;101928.16;;;3.90;92.36
49055;BME280;35405;52.344;14.530;2023-03-01T15:47:39;101923.00;;;3.89;95.11
49055;BME280;35405;52.344;14.530;2023-03-01T15:50:04;101931.72;;;3.84;96.59
49055;BME280;35405;52.344;14.530;2023-03-01T15:52:39;101923.91;;;3.76;97.77
49055;BME280;35405;52.344;14.530;2023-03-01T15:55:06;101921.84;;;3.72;98.71
49055;BME280;35405;52.344;14.530;2023-03-01T15:57:38;101920.66;;;3.67;99.06
49055;BME280;35405;52.344;14.530;2023-03-01T16:00:03;101922.91;;;3.71;99.61
49055;BME280;35405;52.344;14.530;2023-03-01T16:02:36;101914.50;;;3.54;100.00
49055;BME280;35405;52.344;14.530;2023-03-01T16:05:01;101914.34;;;3.42;100.00
49055;BME280;35405;52.344;14.530;2023-03-01T16:07:26;101918.69;;;3.43;100.00
49055;BME280;35405;52.344;14.530;2023-03-01T16:09:52;101907.50;;;3.39;100.00
49055;BME280;35405;52.344;14.530;2023-03-01T16:12:18;101905.09;;;3.31;100.00
49055;BME280;35405;52.344;14.530;2023-03-01T16:14:45;101903.47;;;3.17;100.00
49055;BME280;35405;52.344;14.530;2023-03-01T16:17:10;101897.69;;;3.07;100.00
49055;BME280;35405;52.344;14.530;2023-03-01T16:19:36;101888.00;;;3.06;100.00
49055;BME280;35405;52.344;14.530;2023-03-01T16:22:02;101888.81;;;3.06;100.00
49055;BME280;35405;52.344;14.530;2023-03-01T16:24:27;101887.81;;;2.94;100.00
49055;BME280;35405;52.344;14.530;2023-03-01T16:26:52;101877.69;;;2.96;100.00
49055;BME280;35405;52.344;14.530;2023-03-01T16:29:17;101875.78;;;3.10;100.00
49055;BME280;35405;52.344;14.530;2023-03-01T16:31:43;101878.16;;;2.86;100.00
49055;BME280;35405;52.344;14.530;2023-03-01T16:34:08;101888.72;;;2.74;100.00
49055;BME280;35405;52.344;14.530;2023-03-01T16:36:33;101895.53;;;2.57;100.00
49055;BME280;35405;52.344;14.530;2023-03-01T16:38:59;101895.97;;;2.47;100.00
49055;BME280;35405;52.344;14.530;2023-03-01T16:41:25;101892.88;;;2.37;100.00
49055;BME280;35405;52.344;14.530;2023-03-01T16:43:50;101896.38;;;2.24;100.00
49055;BME280;35405;52.344;14.530;2023-03-01T16:46:17;101898.44;;;2.16;100.00
49055;BME280;35405;52.344;14.530;2023-03-01T16:48:43;101902.75;;;2.10;100.00
49055;BME280;35405;52.344;14.530;2023-03-01T16:51:08;101905.66;;;2.02;100.00
49055;BME280;35405;52.344;14.530;2023-03-01T16:53:34;101910.19;;;2.01;100.00
49055;BME280;35405;52.344;14.530;2023-03-01T16:56:01;101927.13;;;2.02;100.00
49055;BME280;35405;52.344;14.530;2023-03-01T16:58:27;101919.50;;;1.99;100.00
49055;BME280;35405;52.344;14.530;2023-03-01T17:00:52;101916.75;;;1.86;100.00
49055;BME280;35405;52.344;14.530;2023-03-01T17:03:19;101924.81;;;1.86;100.00
49055;BME280;35405;52.344;14.530;2023-03-01T17:05:44;101924.81;;;1.86;100.00
49055;BME280;35405;52.344;14.530;2023-03-01T17:08:09;101930.75;;;1.74;100.00
49055;BME280;35405;52.344;14.530;2023-03-01T17:10:34;101930.75;;;1.68;100.00
49055;BME280;35405;52.344;14.530;2023-03-01T17:12:59;101928.28;;;1.59;100.00
49055;BME280;35405;52.344;14.530;2023-03-01T17:15:25;101927.81;;;1.56;100.00
49055;BME280;35405;52.344;14.530;2023-03-01T17:17:50;101936.06;;;1.48;100.00
49055;BME280;35405;52.344;14.530;2023-03-01T17:20:16;101925.25;;;1.34;100.00
49055;BME280;35405;52.344;14.530;2023-03-01T17:22:41;101928.91;;;1.20;100.00
49055;BME280;35405;52.344;14.530;2023-03-01T17:25:09;101926.59;;;1.10;100.00
49055;BME280;35405;52.344;14.530;2023-03-01T17:27:35;101918.53;;;1.10;100.00
49055;BME280;35405;52.344;14.530;2023-03-01T17:30:01;101923.50;;;1.13;100.00
49055;BME280;35405;52.344;14.530;2023-03-01T17:32:26;101918.91;;;1.01;100.00
49055;BME280;35405;52.344;14.530;2023-03-01T17:34:51;101921.56;;;0.94;100.00
49055;BME280;35405;52.344;14.530;2023-03-01T17:37:16;101914.63;;;0.78;100.00
49055;BME280;35405;52.344;14.530;2023-03-01T17:39:42;101916.41;;;0.64;100.00
49055;BME280;35405;52.344;14.530;2023-03-01T17:42:07;101913.97;;;0.41;100.00
49055;BME280;35405;52.344;14.530;2023-03-01T17:44:32;101904.44;;;0.32;100.00
49055;BME280;35405;52.344;14.530;2023-03-01T17:47:01;101916.28;;;0.23;100.00
49055;BME280;35405;52.344;14.530;2023-03-01T17:49:26;101908.47;;;0.21;100.00
49055;BME280;35405;52.344;14.530;2023-03-01T17:51:51;101919.75;;;0.17;100.00
49055;BME280;35405;52.344;14.530;2023-03-01T17:54:16;101920.63;;;0.03;100.00
49055;BME280;35405;52.344;14.530;2023-03-01T17:56:42;101925.47;;;-0.08;100.00
49055;BME280;35405;52.344;14.530;2023-03-01T17:59:07;101908.06;;;-0.18;100.00
49055;BME280;35405;52.344;14.530;2023-03-01T18:01:32;101922.78;;;-0.29;100.00
49055;BME280;35405;52.344;14.530;2023-03-01T18:03:59;101920.16;;;-0.44;100.00
49055;BME280;35405;52.344;14.530;2023-03-01T18:06:26;101916.22;;;-0.48;100.00
49055;BME280;35405;52.344;14.530;2023-03-01T18:08:52;101911.34;;;-0.59;100.00
49055;BME280;35405;52.344;14.530;2023-03-01T18:11:19;101910.41;;;-0.66;100.00
49055;BME280;35405;52.344;14.530;2023-03-01T18:13:45;101914.47;;;-0.71;100.00
49055;BME280;35405;52.344;14.530;2023-03-01T18:16:12;101904.25;;;-0.82;100.00
49055;BME280;35405;52.344;14.530;2023-03-01T18:18:38;101910.72;;;-0.91;100.00
49055;BME280;35405;52.344;14.530;2023-03-01T18:21:04;101908.16;;;-0.99;100.00
49055;BME280;35405;52.344;14.530;2023-03-01T18:23:30;101909.34;;;-1.02;100.00
49055;BME280;35405;52.344;14.530;2023-03-01T18:25:58;101912.56;;;-1.06;100.00
49055;BME280;35405;52.344;14.530;2023-03-01T18:28:24;101907.22;;;-1.06;100.00
49055;BME280;35405;52.344;14.530;2023-03-01T18:30:59;101907.97;;;-1.12;100.00
49055;BME280;35405;52.344;14.530;2023-03-01T18:33:25;101900.97;;;-1.13;100.00
49055;BME280;35405;52.344;14.530;2023-03-01T18:35:50;101896.63;;;-1.15;100.00
49055;BME280;35405;52.344;14.530;2023-03-01T18:38:16;101896.47;;;-1.13;100.00
49055;BME280;35405;52.344;14.530;2023-03-01T18:40:42;101895.81;;;-1.15;100.00
49055;BME280;35405;52.344;14.530;2023-03-01T18:43:07;101888.53;;;-1.21;100.00
49055;BME280;35405;52.344;14.530;2023-03-01T18:45:32;101886.97;;;-1.30;100.00
49055;BME280;35405;52.344;14.530;2023-03-01T18:47:57;101883.84;;;-1.34;100.00
49055;BME280;35405;52.344;14.530;2023-03-01T18:50:22;101889.25;;;-1.42;100.00
49055;BME280;35405;52.344;14.530;2023-03-01T18:52:47;101880.50;;;-1.51;100.00
49055;BME280;35405;52.344;14.530;2023-03-01T18:55:13;101882.25;;;-1.58;100.00
49055;BME280;35405;52.344;14.530;2023-03-01T18:57:38;101885.94;;;-1.59;100.00
49055;BME280;35405;52.344;14.530;2023-03-01T19:00:03;101882.31;;;-1.66;100.00
49055;BME280;35405;52.344;14.530;2023-03-01T19:02:29;101878.44;;;-1.78;100.00
49055;BME280;35405;52.344;14.530;2023-03-01T19:04:54;101884.22;;;-1.75;100.00
49055;BME280;35405;52.344;14.530;2023-03-01T19:07:19;101880.66;;;-1.67;100.00
49055;BME280;35405;52.344;14.530;2023-03-01T19:09:45;101883.34;;;-1.67;100.00
49055;BME280;35405;52.344;14.530;2023-03-01T19:12:10;101879.66;;;-1.66;100.00
49055;BME280;35405;52.344;14.530;2023-03-01T19:14:35;101876.16;;;-1.67;100.00
49055;BME280;35405;52.344;14.530;2023-03-01T19:17:01;101875.03;;;-1.72;100.00
49055;BME280;35405;52.344;14.530;2023-03-01T19:19:26;101880.22;;;-1.71;100.00
49055;BME280;35405;52.344;14.530;2023-03-01T19:21:51;101867.78;;;-1.78;100.00
49055;BME280;35405;52.344;14.530;2023-03-01T19:24:16;101873.94;;;-1.78;100.00
49055;BME280;35405;52.344;14.530;2023-03-01T19:26:41;101880.91;;;-1.92;100.00
49055;BME280;35405;52.344;14.530;2023-03-01T19:29:07;101885.34;;;-2.07;100.00
49055;BME280;35405;52.344;14.530;2023-03-01T19:31:32;101886.22;;;-2.15;100.00
49055;BME280;35405;52.344;14.530;2023-03-01T19:33:58;101893.28;;;-2.22;100.00
49055;BME280;35405;52.344;14.530;2023-03-01T19:36:23;101896.47;;;-2.26;100.00
49055;BME280;35405;52.344;14.530;2023-03-01T19:38:56;101909.78;;;-2.26;100.00
49055;BME280;35405;52.344;14.530;2023-03-01T19:41:22;101904.28;;;-2.25;100.00
49055;BME280;35405;52.344;14.530;2023-03-01T19:43:47;101904.00;;;-2.30;100.00
49055;BME280;35405;52.344;14.530;2023-03-01T19:46:12;101903.94;;;-2.22;100.00
49055;BME280;35405;52.344;14.530;2023-03-01T19:48:39;101906.94;;;-2.02;100.00
49055;BME280;35405;52.344;14.530;2023-03-01T19:51:05;101906.91;;;-1.94;100.00
49055;BME280;35405;52.344;14.530;2023-03-01T19:53:30;101903.88;;;-1.91;100.00
49055;BME280;35405;52.344;14.530;2023-03-01T19:55:56;101910.09;;;-1.98;100.00
49055;BME280;35405;52.344;14.530;2023-03-01T19:58:21;101903.47;;;-2.02;100.00
49055;BME280;35405;52.344;14.530;2023-03-01T20:00:47;101904.47;;;-2.03;100.00
49055;BME280;35405;52.344;14.530;2023-03-01T20:03:12;101907.06;;;-2.18;100.00
49055;BME280;35405;52.344;14.530;2023-03-01T20:05:37;101911.84;;;-2.37;100.00
49055;BME280;35405;52.344;14.530;2023-03-01T20:08:03;101907.22;;;-2.43;100.00
49055;BME280;35405;52.344;14.530;2023-03-01T20:10:29;101915.25;;;-2.51;100.00
49055;BME280;35405;52.344;14.530;2023-03-01T20:12:55;101912.44;;;-2.49;100.00
49055;BME280;35405;52.344;14.530;2023-03-01T20:15:20;101917.44;;;-2.55;100.00
49055;BME280;35405;52.344;14.530;2023-03-01T20:17:46;101902.84;;;-2.59;100.00
49055;BME280;35405;52.344;14.530;2023-03-01T20:20:11;101905.50;;;-2.59;100.00